Time;durP1;ratioP1;P1;durP2;ratioP2;P2;SDS_P1;SDS_P2;PMS_P1;PMS_P2;Temp;Humidity;BMP_temperature;BMP_pressure;BME280_temperature;BME280_humidity;BME280_pressure;Samples;Min_cycle;Max_cycle;Signal;HPM_P1;HPM_P2
2023/09/08 00:01:59;;;;;;;25.95;14.18;;;;;;;;;;6245834;28;20386;-53
2023/09/08 00:05:00;;;;;;;26.15;15.00;;;;;;;;;;6247630;28;21123;-58
2023/09/08 00:08:00;;;;;;;25.88;15.30;;;;;;;;;;6245127;28;20072;-58
2023/09/08 00:11:01;;;;;;;26.83;15.15;;;;;;;;;;6248802;28;20045;-56
2023/09/08 00:14:03;;;;;;;22.30;13.57;;;;;;;;;;6246292;28;20090;-56
2023/09/08 00:17:04;;;;;;;21.10;12.85;;;;;;;;;;6248401;28;20049;-58
2023/09/08 00:20:09;;;;;;;20.17;12.07;;;;;;;;;;6248381;28;20489;-56
2023/09/08 00:23:10;;;;;;;18.42;12.00;;;;;;;;;;6246663;28;20488;-56
2023/09/08 00:26:10;;;;;;;20.55;11.65;;;;;;;;;;6245619;28;20053;-58
2023/09/08 00:29:11;;;;;;;20.80;12.52;;;;;;;;;;6252580;28;20045;-57
2023/09/08 00:32:11;;;;;;;17.30;12.40;;;;;;;;;;6264464;28;20530;-57
2023/09/08 00:35:13;;;;;;;22.40;12.15;;;;;;;;;;6246884;28;20131;-57
2023/09/08 00:38:13;;;;;;;19.98;12.35;;;;;;;;;;6244600;28;20055;-56
2023/09/08 00:41:14;;;;;;;19.05;11.95;;;;;;;;;;6245632;28;20049;-56
2023/09/08 00:44:15;;;;;;;20.98;12.93;;;;;;;;;;6247425;28;20060;-58
2023/09/08 00:47:15;;;;;;;18.63;12.40;;;;;;;;;;6245912;28;20053;-57
2023/09/08 00:50:16;;;;;;;19.33;12.38;;;;;;;;;;6246549;28;20041;-58
2023/09/08 00:53:17;;;;;;;19.90;12.27;;;;;;;;;;6247783;28;20057;-57
2023/09/08 00:56:18;;;;;;;21.73;13.73;;;;;;;;;;6244144;28;20904;-58
2023/09/08 00:59:18;;;;;;;20.55;12.98;;;;;;;;;;6247039;28;20041;-55
2023/09/08 01:02:20;;;;;;;19.40;12.55;;;;;;;;;;6246177;28;20053;-57
2023/09/08 01:05:21;;;;;;;21.48;13.40;;;;;;;;;;6247072;28;20385;-58
2023/09/08 01:08:22;;;;;;;20.85;12.13;;;;;;;;;;6248131;28;20049;-57
2023/09/08 01:11:22;;;;;;;21.95;12.13;;;;;;;;;;6248111;28;20045;-56
2023/09/08 01:14:23;;;;;;;22.25;13.32;;;;;;;;;;6250420;28;20163;-56
2023/09/08 01:17:23;;;;;;;23.42;13.48;;;;;;;;;;6246881;28;20049;-55
2023/09/08 01:20:33;;;;;;;18.63;12.45;;;;;;;;;;6246763;28;20081;-53
2023/09/08 01:23:58;;;;;;;20.17;12.95;;;;;;;;;;6246008;28;20128;-58
2023/09/08 01:26:59;;;;;;;19.85;12.32;;;;;;;;;;6243875;28;21288;-57
2023/09/08 01:30:01;;;;;;;22.55;12.35;;;;;;;;;;6245012;28;20041;-56
2023/09/08 01:33:02;;;;;;;20.13;12.70;;;;;;;;;;6248311;28;20123;-58
2023/09/08 01:36:03;;;;;;;21.02;13.18;;;;;;;;;;6247025;28;20476;-59
2023/09/08 01:39:04;;;;;;;21.60;12.25;;;;;;;;;;6244827;28;20076;-57
2023/09/08 01:42:04;;;;;;;21.98;12.30;;;;;;;;;;6242405;28;20069;-56
2023/09/08 01:45:06;;;;;;;22.17;12.20;;;;;;;;;;6244432;28;20514;-56
2023/09/08 01:48:07;;;;;;;23.20;12.75;;;;;;;;;;6245628;28;20496;-58
2023/09/08 01:51:07;;;;;;;18.98;12.18;;;;;;;;;;6243323;28;20095;-58
2023/09/08 01:54:08;;;;;;;20.35;11.90;;;;;;;;;;6245780;28;20049;-57
2023/09/08 01:57:08;;;;;;;21.40;12.20;;;;;;;;;;6244213;28;20068;-55
2023/09/08 02:00:10;;;;;;;23.45;13.20;;;;;;;;;;6246362;28;20046;-57
2023/09/08 02:03:11;;;;;;;25.95;12.88;;;;;;;;;;6245507;28;20115;-57
2023/09/08 02:06:12;;;;;;;19.77;12.38;;;;;;;;;;6248865;28;20508;-57
2023/09/08 02:09:14;;;;;;;19.23;12.98;;;;;;;;;;6249931;28;20087;-57
2023/09/08 02:12:14;;;;;;;18.92;12.38;;;;;;;;;;6248491;28;20053;-58
2023/09/08 02:15:17;;;;;;;19.52;12.65;;;;;;;;;;6248773;28;20079;-56
2023/09/08 02:18:17;;;;;;;18.98;12.55;;;;;;;;;;6249261;28;20508;-55
2023/09/08 02:21:18;;;;;;;29.40;13.18;;;;;;;;;;6248018;28;20167;-56
2023/09/08 02:24:19;;;;;;;18.15;11.65;;;;;;;;;;6249133;28;20076;-58
2023/09/08 02:27:20;;;;;;;19.73;12.23;;;;;;;;;;6250198;28;20091;-59
2023/09/08 02:30:20;;;;;;;21.30;13.30;;;;;;;;;;6248466;28;20056;-57
2023/09/08 02:33:21;;;;;;;20.75;12.45;;;;;;;;;;6248142;28;20079;-56
2023/09/08 02:36:25;;;;;;;22.23;13.23;;;;;;;;;;6249641;28;20053;-57
2023/09/08 02:39:26;;;;;;;21.80;13.45;;;;;;;;;;6247518;28;20047;-55
2023/09/08 02:42:27;;;;;;;20.83;13.13;;;;;;;;;;6245313;28;20076;-58
2023/09/08 02:45:28;;;;;;;19.88;13.10;;;;;;;;;;6249637;28;20133;-56
2023/09/08 02:48:28;;;;;;;19.65;12.05;;;;;;;;;;6249973;28;20064;-56
2023/09/08 02:51:29;;;;;;;18.67;12.38;;;;;;;;;;6249014;28;20072;-56
2023/09/08 02:54:29;;;;;;;16.38;12.13;;;;;;;;;;6245610;28;20048;-55
2023/09/08 02:57:30;;;;;;;20.55;12.43;;;;;;;;;;6245175;28;20557;-58
2023/09/08 03:00:30;;;;;;;18.90;11.85;;;;;;;;;;6247668;28;20050;-55
2023/09/08 03:03:33;;;;;;;17.95;11.95;;;;;;;;;;6247070;28;20076;-57
2023/09/08 03:06:34;;;;;;;20.38;12.13;;;;;;;;;;6249327;28;20052;-57
2023/09/08 03:09:35;;;;;;;21.45;12.07;;;;;;;;;;6246640;28;20486;-58
2023/09/08 03:12:36;;;;;;;19.63;12.50;;;;;;;;;;6248633;28;20049;-55
2023/09/08 03:15:36;;;;;;;19.52;13.15;;;;;;;;;;6252452;28;20049;-56
2023/09/08 03:18:38;;;;;;;20.33;12.75;;;;;;;;;;6250269;28;20037;-56
2023/09/08 03:21:38;;;;;;;20.88;13.23;;;;;;;;;;6245968;28;20043;-57
2023/09/08 03:24:39;;;;;;;18.83;11.95;;;;;;;;;;6247510;28;20045;-56
2023/09/08 03:27:39;;;;;;;20.27;12.63;;;;;;;;;;6251068;28;20061;-56
2023/09/08 03:30:40;;;;;;;21.77;12.88;;;;;;;;;;6249222;28;20094;-57
2023/09/08 03:33:42;;;;;;;19.05;11.70;;;;;;;;;;6248888;28;20049;-57
2023/09/08 03:36:42;;;;;;;20.60;11.93;;;;;;;;;;6247267;28;20045;-55
2023/09/08 03:39:43;;;;;;;19.63;12.60;;;;;;;;;;6244281;28;20203;-57
2023/09/08 03:42:43;;;;;;;19.20;11.85;;;;;;;;;;6244626;28;20049;-56
2023/09/08 03:45:45;;;;;;;19.48;11.68;;;;;;;;;;6243826;28;20041;-57
2023/09/08 03:48:46;;;;;;;20.73;12.65;;;;;;;;;;6246597;28;20557;-56
2023/09/08 03:51:46;;;;;;;19.42;12.13;;;;;;;;;;6243042;28;20041;-56
2023/09/08 03:54:47;;;;;;;21.25;12.45;;;;;;;;;;6251229;28;20049;-57
2023/09/08 03:57:47;;;;;;;18.98;12.20;;;;;;;;;;6244401;28;20052;-58
2023/09/08 04:00:48;;;;;;;21.95;13.05;;;;;;;;;;6247106;28;20048;-55
2023/09/08 04:03:48;;;;;;;20.52;12.05;;;;;;;;;;6247453;28;20508;-57
2023/09/08 04:06:49;;;;;;;19.10;12.48;;;;;;;;;;6247649;28;20049;-56
2023/09/08 04:09:50;;;;;;;19.52;12.07;;;;;;;;;;6251485;28;20041;-56
2023/09/08 04:12:50;;;;;;;21.23;12.52;;;;;;;;;;6244387;28;21188;-57
2023/09/08 04:15:51;;;;;;;19.75;13.00;;;;;;;;;;6245654;28;20045;-57
2023/09/08 04:18:51;;;;;;;21.33;14.73;;;;;;;;;;6246523;28;20053;-56
2023/09/08 04:21:52;;;;;;;24.38;14.38;;;;;;;;;;6247438;28;20113;-56
2023/09/08 04:24:54;;;;;;;23.77;14.65;;;;;;;;;;6246800;28;20045;-52
2023/09/08 04:27:54;;;;;;;;;;;;;;;;;;6243146;28;20094;-57
2023/09/08 04:30:55;;;;;;;23.83;13.48;;;;;;;;;;6249316;28;20232;-57
2023/09/08 04:33:55;;;;;;;23.67;14.43;;;;;;;;;;6245250;28;20127;-55
2023/09/08 04:36:56;;;;;;;25.60;15.07;;;;;;;;;;6249567;28;20373;-56
2023/09/08 04:39:57;;;;;;;22.20;14.32;;;;;;;;;;6249637;28;20069;-63
2023/09/08 04:42:57;;;;;;;20.58;13.40;;;;;;;;;;6248067;28;20059;-58
2023/09/08 04:45:58;;;;;;;21.48;13.05;;;;;;;;;;6245528;28;20599;-56
2023/09/08 04:48:58;;;;;;;21.20;13.20;;;;;;;;;;6248168;28;20048;-59
2023/09/08 04:51:59;;;;;;;23.48;14.32;;;;;;;;;;6244058;28;20087;-55
2023/09/08 04:54:59;;;;;;;26.30;14.57;;;;;;;;;;6243189;28;20052;-59
2023/09/08 04:58:00;;;;;;;25.88;14.85;;;;;;;;;;6245415;28;20045;-59
2023/09/08 05:01:01;;;;;;;20.40;13.57;;;;;;;;;;6244040;28;20048;-57
2023/09/08 05:04:02;;;;;;;23.73;14.93;;;;;;;;;;6246189;28;20075;-54
2023/09/08 05:07:02;;;;;;;22.58;15.20;;;;;;;;;;6243909;28;20412;-57
2023/09/08 05:10:03;;;;;;;21.88;13.80;;;;;;;;;;6244962;28;20488;-57
2023/09/08 05:13:04;;;;;;;24.13;15.02;;;;;;;;;;6243747;28;20052;-56
2023/09/08 05:16:11;;;;;;;25.02;14.88;;;;;;;;;;6240836;28;20108;-59
2023/09/08 05:19:15;;;;;;;28.38;15.77;;;;;;;;;;6244093;28;20056;-58
2023/09/08 05:22:17;;;;;;;26.40;15.55;;;;;;;;;;6241956;28;20514;-58
2023/09/08 05:25:17;;;;;;;23.90;14.85;;;;;;;;;;6243061;28;20048;-58
2023/09/08 05:28:18;;;;;;;24.40;14.82;;;;;;;;;;6244152;28;20542;-57
2023/09/08 05:31:18;;;;;;;24.33;15.05;;;;;;;;;;6243754;28;20049;-59
2023/09/08 05:34:19;;;;;;;23.95;14.48;;;;;;;;;;6245508;28;20033;-57
2023/09/08 05:37:19;;;;;;;26.55;16.15;;;;;;;;;;6241639;28;20400;-59
2023/09/08 05:40:23;;;;;;;27.65;15.43;;;;;;;;;;6244545;28;20083;-59
2023/09/08 05:43:25;;;;;;;28.63;15.52;;;;;;;;;;6250743;28;20130;-58
2023/09/08 05:46:26;;;;;;;28.42;15.20;;;;;;;;;;6247983;28;20049;-58
2023/09/08 05:49:26;;;;;;;24.88;14.93;;;;;;;;;;6250376;28;20086;-60
2023/09/08 05:52:28;;;;;;;26.00;15.05;;;;;;;;;;6247503;28;20170;-57
2023/09/08 05:55:28;;;;;;;27.52;15.90;;;;;;;;;;6245328;28;20041;-58
2023/09/08 05:58:29;;;;;;;23.42;14.95;;;;;;;;;;6249322;28;20095;-55
2023/09/08 06:01:31;;;;;;;34.65;18.05;;;;;;;;;;6247447;28;20303;-60
2023/09/08 06:04:32;;;;;;;26.55;15.70;;;;;;;;;;6247784;28;20113;-58
2023/09/08 06:07:33;;;;;;;29.03;16.50;;;;;;;;;;6246068;28;20275;-59
2023/09/08 06:10:33;;;;;;;29.95;17.33;;;;;;;;;;6248888;28;20064;-57
2023/09/08 06:13:34;;;;;;;28.25;16.00;;;;;;;;;;6245039;28;20057;-53
2023/09/08 06:16:35;;;;;;;30.48;17.13;;;;;;;;;;6243730;28;20072;-59
2023/09/08 06:19:35;;;;;;;28.15;17.85;;;;;;;;;;6245670;28;20045;-58
2023/09/08 06:22:36;;;;;;;30.55;17.88;;;;;;;;;;6246202;28;20033;-59
2023/09/08 06:25:37;;;;;;;29.03;17.43;;;;;;;;;;6247518;28;20056;-57
2023/09/08 06:28:37;;;;;;;29.40;17.87;;;;;;;;;;6249375;28;20551;-57
2023/09/08 06:31:38;;;;;;;26.25;17.10;;;;;;;;;;6254007;28;20049;-56
2023/09/08 06:34:39;;;;;;;26.97;16.77;;;;;;;;;;6249300;28;20037;-58
2023/09/08 06:37:39;;;;;;;29.07;16.90;;;;;;;;;;6245285;28;20978;-66
2023/09/08 06:40:40;;;;;;;27.58;16.20;;;;;;;;;;6246982;28;20045;-57
2023/09/08 06:43:40;;;;;;;25.35;16.25;;;;;;;;;;6247289;28;20049;-58
2023/09/08 06:46:41;;;;;;;25.40;16.52;;;;;;;;;;6247764;28;20369;-58
2023/09/08 06:49:41;;;;;;;28.43;17.37;;;;;;;;;;6245712;28;20041;-58
2023/09/08 06:52:42;;;;;;;27.40;16.07;;;;;;;;;;6246168;28;20095;-60
2023/09/08 06:55:43;;;;;;;28.33;17.20;;;;;;;;;;6248302;28;20056;-59
2023/09/08 06:58:43;;;;;;;27.75;18.15;;;;;;;;;;6249475;28;20076;-59
2023/09/08 07:01:44;;;;;;;29.20;15.97;;;;;;;;;;6247359;28;20083;-59
2023/09/08 07:04:44;;;;;;;29.25;17.13;;;;;;;;;;6245294;28;20460;-59
2023/09/08 07:07:45;;;;;;;25.37;16.57;;;;;;;;;;6247586;28;20033;-57
2023/09/08 07:10:52;;;;;;;24.90;15.53;;;;;;;;;;6249173;28;20072;-59
2023/09/08 07:13:52;;;;;;;28.50;15.65;;;;;;;;;;6246617;28;20054;-58
2023/09/08 07:16:53;;;;;;;23.27;15.80;;;;;;;;;;6249125;28;20060;-59
2023/09/08 07:19:53;;;;;;;27.87;16.20;;;;;;;;;;6247196;28;20389;-58
2023/09/08 07:22:54;;;;;;;23.40;15.37;;;;;;;;;;6249433;28;20048;-57
2023/09/08 07:25:54;;;;;;;24.10;15.27;;;;;;;;;;6241999;28;20045;-56
2023/09/08 07:28:55;;;;;;;25.10;14.67;;;;;;;;;;6242177;28;20094;-60
2023/09/08 07:31:56;;;;;;;22.00;14.73;;;;;;;;;;6245335;28;20132;-60
2023/09/08 07:34:56;;;;;;;25.63;14.47;;;;;;;;;;6245961;28;20405;-59
2023/09/08 07:37:57;;;;;;;25.90;15.83;;;;;;;;;;6245478;28;20408;-57
2023/09/08 07:41:00;;;;;;;22.20;13.90;;;;;;;;;;6245014;28;20083;-58
2023/09/08 07:44:00;;;;;;;21.63;13.23;;;;;;;;;;6245700;28;20048;-59
2023/09/08 07:47:01;;;;;;;21.60;13.90;;;;;;;;;;6246601;28;20055;-59
2023/09/08 07:50:22;;;;;;;23.13;13.27;;;;;;;;;;6247749;28;20045;-57
2023/09/08 07:53:23;;;;;;;24.23;13.48;;;;;;;;;;6246173;28;20666;-61
2023/09/08 07:56:24;;;;;;;22.40;13.50;;;;;;;;;;6242471;28;20041;-59
2023/09/08 07:59:25;;;;;;;22.13;15.10;;;;;;;;;;6239517;28;20053;-59
2023/09/08 08:02:25;;;;;;;19.97;13.53;;;;;;;;;;6244492;28;20045;-60
2023/09/08 08:05:26;;;;;;;22.37;13.17;;;;;;;;;;6246021;28;20143;-59
2023/09/08 08:08:26;;;;;;;17.17;11.93;;;;;;;;;;6244364;28;20045;-59
2023/09/08 08:11:28;;;;;;;18.43;12.57;;;;;;;;;;6243697;28;20124;-59
2023/09/08 08:14:29;;;;;;;24.05;12.48;;;;;;;;;;6244057;28;20100;-59
2023/09/08 08:17:30;;;;;;;20.80;12.20;;;;;;;;;;6242235;28;20057;-57
2023/09/08 08:20:34;;;;;;;15.77;10.93;;;;;;;;;;6240876;28;20048;-57
2023/09/08 08:23:36;;;;;;;20.63;12.43;;;;;;;;;;6244220;28;20369;-61
2023/09/08 08:26:36;;;;;;;19.10;11.32;;;;;;;;;;6243565;28;20494;-59
2023/09/08 08:29:37;;;;;;;18.37;11.23;;;;;;;;;;6242149;28;20389;-59
2023/09/08 08:32:37;;;;;;;21.80;12.60;;;;;;;;;;6243138;28;20061;-59
2023/09/08 08:35:38;;;;;;;16.93;11.13;;;;;;;;;;6244560;28;20055;-60
2023/09/08 08:38:38;;;;;;;18.33;11.40;;;;;;;;;;6242953;28;20045;-60
2023/09/08 08:41:40;;;;;;;18.03;11.50;;;;;;;;;;6242964;28;20099;-59
2023/09/08 08:44:41;;;;;;;17.40;11.18;;;;;;;;;;6243996;28;20111;-60
2023/09/08 08:47:43;;;;;;;20.00;10.82;;;;;;;;;;6245093;28;20442;-59
2023/09/08 08:50:44;;;;;;;16.65;11.23;;;;;;;;;;6245074;28;20057;-60
2023/09/08 08:53:44;;;;;;;16.73;10.88;;;;;;;;;;6244808;28;20045;-59
2023/09/08 08:56:45;;;;;;;16.43;10.80;;;;;;;;;;6244353;28;20048;-60
2023/09/08 08:59:46;;;;;;;17.52;11.35;;;;;;;;;;6244245;28;20481;-59
2023/09/08 09:02:49;;;;;;;17.53;11.00;;;;;;;;;;6245320;28;20049;-60
2023/09/08 09:05:49;;;;;;;18.27;11.20;;;;;;;;;;6244609;28;20137;-58
2023/09/08 09:08:50;;;;;;;16.27;11.33;;;;;;;;;;6243314;28;20050;-59
2023/09/08 09:11:51;;;;;;;18.07;11.83;;;;;;;;;;6242667;28;20081;-59
2023/09/08 09:14:54;;;;;;;16.03;11.17;;;;;;;;;;6246296;28;20041;-59
2023/09/08 09:18:05;;;;;;;20.75;12.10;;;;;;;;;;6249145;28;22118;-58
2023/09/08 09:21:06;;;;;;;16.45;11.07;;;;;;;;;;6246816;28;20447;-60
2023/09/08 09:24:07;;;;;;;20.53;12.10;;;;;;;;;;6249117;28;20038;-59
2023/09/08 09:27:08;;;;;;;20.17;11.50;;;;;;;;;;6247569;28;20045;-59
2023/09/08 09:30:09;;;;;;;15.90;10.70;;;;;;;;;;6246834;28;20064;-58
2023/09/08 09:33:09;;;;;;;17.83;11.43;;;;;;;;;;6248951;28;20053;-60
2023/09/08 09:36:20;;;;;;;16.47;11.00;;;;;;;;;;6250256;28;20412;-59
2023/09/08 09:39:22;;;;;;;18.17;11.20;;;;;;;;;;6246559;28;20052;-60
2023/09/08 09:42:23;;;;;;;16.95;10.85;;;;;;;;;;6248765;28;20643;-61
2023/09/08 09:45:25;;;;;;;21.17;10.80;;;;;;;;;;6250311;28;20061;-60
2023/09/08 09:48:27;;;;;;;16.55;10.90;;;;;;;;;;6248852;28;20049;-59
2023/09/08 09:51:28;;;;;;;17.92;10.68;;;;;;;;;;6245710;28;20052;-59
2023/09/08 09:54:29;;;;;;;14.43;9.80;;;;;;;;;;6249893;28;20041;-60
2023/09/08 09:57:31;;;;;;;16.43;10.03;;;;;;;;;;6245925;28;20507;-57
2023/09/08 10:00:34;;;;;;;15.60;10.27;;;;;;;;;;6245754;28;20102;-60
2023/09/08 10:03:35;;;;;;;16.05;9.82;;;;;;;;;;6249434;28;20041;-60
2023/09/08 10:06:37;;;;;;;15.13;10.10;;;;;;;;;;6246076;28;20091;-60
2023/09/08 10:09:38;;;;;;;14.27;9.00;;;;;;;;;;6247707;28;20053;-59
2023/09/08 10:12:45;;;;;;;16.23;9.80;;;;;;;;;;6249824;28;20057;-60
2023/09/08 10:15:47;;;;;;;16.88;9.57;;;;;;;;;;6248303;28;20076;-59
2023/09/08 10:18:51;;;;;;;12.55;8.90;;;;;;;;;;6247248;28;20041;-60
2023/09/08 10:21:55;;;;;;;17.23;10.00;;;;;;;;;;6247738;28;20115;-60
2023/09/08 10:24:59;;;;;;;14.15;9.80;;;;;;;;;;6246335;28;20484;-59
2023/09/08 10:28:01;;;;;;;15.77;10.45;;;;;;;;;;6244993;28;20102;-61
2023/09/08 10:31:03;;;;;;;16.85;10.23;;;;;;;;;;6248518;28;20042;-60
2023/09/08 10:34:04;;;;;;;16.92;10.10;;;;;;;;;;6245152;28;20044;-59
2023/09/08 10:37:19;;;;;;;16.42;10.70;;;;;;;;;;6245131;28;20053;-58
2023/09/08 10:40:23;;;;;;;15.93;10.23;;;;;;;;;;6245655;28;20043;-60
2023/09/08 10:43:24;;;;;;;15.93;9.43;;;;;;;;;;6247564;28;20056;-60
2023/09/08 10:46:27;;;;;;;13.50;9.33;;;;;;;;;;6247144;28;20480;-59
2023/09/08 10:49:35;;;;;;;14.10;9.25;;;;;;;;;;6250427;28;20419;-60
2023/09/08 10:52:35;;;;;;;14.75;9.68;;;;;;;;;;6248886;28;20049;-66
2023/09/08 10:55:52;;;;;;;15.73;9.93;;;;;;;;;;6246072;28;20052;-59
2023/09/08 10:58:54;;;;;;;14.80;9.50;;;;;;;;;;6252019;28;20083;-60
2023/09/08 11:01:55;;;;;;;13.43;9.73;;;;;;;;;;6260163;28;20365;-60
2023/09/08 11:04:56;;;;;;;15.00;9.48;;;;;;;;;;6264525;28;20040;-61
2023/09/08 11:07:57;;;;;;;;;;;;;;;;;;6265320;28;20477;-60
2023/09/08 11:10:57;;;;;;;17.43;10.07;;;;;;;;;;6263114;28;20222;-60
2023/09/08 11:13:59;;;;;;;20.13;9.82;;;;;;;;;;6252497;28;20045;-61
2023/09/08 11:17:02;;;;;;;13.40;9.38;;;;;;;;;;6246455;28;20456;-62
2023/09/08 11:20:08;;;;;;;15.70;9.80;;;;;;;;;;6247410;28;20515;-60
2023/09/08 11:23:10;;;;;;;14.85;10.30;;;;;;;;;;6245963;28;20068;-59
2023/09/08 11:26:12;;;;;;;17.45;10.05;;;;;;;;;;6246296;28;20045;-60
2023/09/08 11:29:12;;;;;;;15.48;9.18;;;;;;;;;;6246059;28;20076;-60
2023/09/08 11:32:13;;;;;;;16.20;10.40;;;;;;;;;;6240847;28;20053;-60
2023/09/08 11:35:15;;;;;;;15.07;9.70;;;;;;;;;;6246852;28;20090;-59
2023/09/08 11:38:16;;;;;;;14.70;9.60;;;;;;;;;;6244539;28;20807;-59
2023/09/08 11:41:17;;;;;;;17.00;10.43;;;;;;;;;;6243853;28;20364;-60
2023/09/08 11:44:21;;;;;;;14.18;10.27;;;;;;;;;;6245327;28;20547;-60
2023/09/08 11:47:21;;;;;;;14.45;10.30;;;;;;;;;;6246227;28;20059;-60
2023/09/08 11:50:23;;;;;;;15.47;9.93;;;;;;;;;;6245498;28;20489;-60
2023/09/08 11:53:24;;;;;;;15.30;10.40;;;;;;;;;;6248525;28;20049;-60
2023/09/08 11:56:25;;;;;;;15.65;9.82;;;;;;;;;;6249072;28;20045;-60
2023/09/08 11:59:27;;;;;;;19.48;10.75;;;;;;;;;;6242152;28;20514;-60
2023/09/08 12:02:28;;;;;;;17.60;10.25;;;;;;;;;;6246189;28;20359;-61
2023/09/08 12:05:29;;;;;;;17.37;9.83;;;;;;;;;;6246966;28;20270;-60
2023/09/08 12:08:30;;;;;;;15.15;9.43;;;;;;;;;;6248166;28;20041;-60
2023/09/08 12:11:42;;;;;;;14.80;10.70;;;;;;;;;;6244511;28;20488;-61
2023/09/08 12:14:43;;;;;;;16.00;9.80;;;;;;;;;;6244319;28;20083;-60
2023/09/08 12:17:50;;;;;;;14.57;9.73;;;;;;;;;;6245914;28;20048;-61
2023/09/08 12:21:04;;;;;;;16.08;9.63;;;;;;;;;;6244398;28;20055;-60
2023/09/08 12:24:05;;;;;;;17.50;10.40;;;;;;;;;;6245056;28;20191;-60
2023/09/08 12:27:06;;;;;;;15.32;9.82;;;;;;;;;;6245454;28;20063;-61
2023/09/08 12:30:08;;;;;;;15.33;9.63;;;;;;;;;;6243534;28;20048;-60
2023/09/08 12:33:10;;;;;;;14.23;9.40;;;;;;;;;;6250099;28;20048;-60
2023/09/08 12:36:14;;;;;;;14.10;9.13;;;;;;;;;;6245605;28;20183;-61
2023/09/08 12:39:14;;;;;;;15.35;10.27;;;;;;;;;;6240522;28;20562;-60
2023/09/08 12:42:15;;;;;;;14.70;10.20;;;;;;;;;;6244297;28;20049;-59
2023/09/08 12:45:16;;;;;;;16.05;9.80;;;;;;;;;;6243423;28;20484;-60
2023/09/08 12:48:16;;;;;;;16.27;10.23;;;;;;;;;;6245143;28;20045;-58
2023/09/08 12:51:17;;;;;;;15.53;9.83;;;;;;;;;;6242457;28;20134;-61
2023/09/08 12:54:17;;;;;;;15.43;10.53;;;;;;;;;;6244655;28;20041;-59
2023/09/08 12:57:18;;;;;;;17.08;10.40;;;;;;;;;;6245535;28;20492;-60
2023/09/08 13:00:19;;;;;;;15.37;9.97;;;;;;;;;;6242754;28;20072;-60
2023/09/08 13:03:20;;;;;;;15.57;10.20;;;;;;;;;;6246036;28;20061;-60
2023/09/08 13:06:20;;;;;;;15.10;10.00;;;;;;;;;;6246062;28;20052;-60
2023/09/08 13:09:21;;;;;;;19.45;10.70;;;;;;;;;;6244942;28;20169;-60
2023/09/08 13:12:22;;;;;;;16.38;10.68;;;;;;;;;;6244966;28;20491;-60
2023/09/08 13:15:23;;;;;;;17.80;10.60;;;;;;;;;;6242181;28;20064;-60
2023/09/08 13:18:24;;;;;;;18.30;10.73;;;;;;;;;;6243133;28;20417;-60
2023/09/08 13:21:25;;;;;;;16.88;10.98;;;;;;;;;;6243480;28;20864;-59
2023/09/08 13:24:25;;;;;;;20.27;10.80;;;;;;;;;;6245022;28;20372;-60
2023/09/08 13:27:26;;;;;;;15.68;10.60;;;;;;;;;;6246624;28;20049;-60
2023/09/08 13:30:27;;;;;;;17.87;10.50;;;;;;;;;;6245482;28;20041;-60
2023/09/08 13:33:28;;;;;;;17.02;10.82;;;;;;;;;;6245740;28;20171;-60
2023/09/08 13:36:28;;;;;;;16.30;11.00;;;;;;;;;;6246259;28;20053;-61
2023/09/08 13:39:29;;;;;;;15.83;11.07;;;;;;;;;;6244656;28;20266;-60
2023/09/08 13:42:30;;;;;;;16.70;10.67;;;;;;;;;;6246112;28;20048;-61
2023/09/08 13:45:30;;;;;;;15.63;11.10;;;;;;;;;;6246535;28;20608;-60
2023/09/08 13:48:31;;;;;;;18.97;10.57;;;;;;;;;;6243475;28;20052;-60
2023/09/08 13:51:32;;;;;;;17.95;10.98;;;;;;;;;;6242385;28;20080;-59
2023/09/08 13:54:34;;;;;;;19.10;10.50;;;;;;;;;;6247983;28;20049;-60
2023/09/08 13:57:34;;;;;;;16.48;11.32;;;;;;;;;;6243108;28;20049;-60
2023/09/08 14:00:37;;;;;;;19.77;12.27;;;;;;;;;;6242853;28;20110;-60
2023/09/08 14:03:38;;;;;;;18.77;10.85;;;;;;;;;;6249525;28;20045;-60
2023/09/08 14:06:38;;;;;;;19.80;11.63;;;;;;;;;;6251806;28;20491;-61
2023/09/08 14:09:39;;;;;;;17.35;10.90;;;;;;;;;;6250720;28;20965;-61
2023/09/08 14:12:40;;;;;;;16.60;10.63;;;;;;;;;;6249623;28;20708;-60
2023/09/08 14:15:40;;;;;;;14.63;10.37;;;;;;;;;;6251089;28;20305;-61
2023/09/08 14:18:41;;;;;;;16.47;10.90;;;;;;;;;;6248985;28;20759;-60
2023/09/08 14:21:42;;;;;;;24.10;11.65;;;;;;;;;;6257395;28;20053;-60
2023/09/08 14:24:42;;;;;;;15.67;10.17;;;;;;;;;;6256963;28;20052;-60
2023/09/08 14:27:43;;;;;;;18.45;11.27;;;;;;;;;;6258372;28;20053;-60
2023/09/08 14:30:44;;;;;;;17.63;11.03;;;;;;;;;;6257957;28;20060;-60
2023/09/08 14:33:45;;;;;;;17.65;11.65;;;;;;;;;;6256898;28;20047;-61
2023/09/08 14:36:45;;;;;;;17.27;11.43;;;;;;;;;;6259457;28;20041;-60
2023/09/08 14:39:46;;;;;;;16.98;10.68;;;;;;;;;;6255306;28;20527;-60
2023/09/08 14:42:46;;;;;;;17.40;11.03;;;;;;;;;;6257234;28;20092;-61
2023/09/08 14:45:47;;;;;;;23.07;11.43;;;;;;;;;;6256175;28;20143;-60
2023/09/08 14:48:48;;;;;;;19.50;10.87;;;;;;;;;;6256688;28;20392;-60
2023/09/08 14:51:48;;;;;;;20.33;10.98;;;;;;;;;;6256917;28;20075;-60
2023/09/08 14:54:49;;;;;;;18.57;11.27;;;;;;;;;;6259096;28;20416;-60
2023/09/08 14:57:50;;;;;;;18.23;11.60;;;;;;;;;;6256575;28;20488;-60
2023/09/08 15:00:51;;;;;;;17.80;10.98;;;;;;;;;;6255130;28;20416;-60
2023/09/08 15:03:52;;;;;;;18.10;11.15;;;;;;;;;;6257939;28;20041;-60
2023/09/08 15:06:52;;;;;;;18.20;11.10;;;;;;;;;;6257670;28;20053;-61
2023/09/08 15:09:53;;;;;;;18.33;11.20;;;;;;;;;;6254865;28;20518;-60
2023/09/08 15:12:54;;;;;;;15.63;10.37;;;;;;;;;;6256373;28;20184;-60
2023/09/08 15:15:57;;;;;;;16.58;11.05;;;;;;;;;;6257485;28;20045;-60
2023/09/08 15:18:57;;;;;;;18.20;11.00;;;;;;;;;;6254096;28;20057;-59
2023/09/08 15:21:58;;;;;;;18.20;12.32;;;;;;;;;;6258014;28;20175;-59
2023/09/08 15:24:59;;;;;;;18.58;11.93;;;;;;;;;;6256201;28;20072;-59
2023/09/08 15:27:59;;;;;;;18.05;10.95;;;;;;;;;;6257544;28;20780;-58
2023/09/08 15:31:00;;;;;;;16.57;11.13;;;;;;;;;;6253688;28;20428;-60
2023/09/08 15:34:00;;;;;;;17.23;11.55;;;;;;;;;;6255020;28;20508;-58
2023/09/08 15:37:01;;;;;;;17.63;10.83;;;;;;;;;;6257998;28;21557;-57
2023/09/08 15:40:03;;;;;;;19.63;11.65;;;;;;;;;;6254065;28;20049;-59
2023/09/08 15:43:04;;;;;;;19.33;11.63;;;;;;;;;;6255835;28;20087;-59
2023/09/08 15:46:05;;;;;;;18.50;12.05;;;;;;;;;;6257280;28;20049;-61
2023/09/08 15:49:06;;;;;;;16.77;10.50;;;;;;;;;;6255270;28;20055;-60
2023/09/08 15:52:07;;;;;;;17.58;10.85;;;;;;;;;;6257103;28;20415;-60
2023/09/08 15:55:07;;;;;;;17.63;10.27;;;;;;;;;;6256563;28;20049;-60
2023/09/08 15:58:08;;;;;;;15.07;10.70;;;;;;;;;;6257071;28;20055;-60
2023/09/08 16:01:09;;;;;;;18.43;11.33;;;;;;;;;;6254749;28;20428;-61
2023/09/08 16:04:10;;;;;;;18.25;11.02;;;;;;;;;;6255240;28;20086;-60
2023/09/08 16:07:10;;;;;;;18.25;11.68;;;;;;;;;;6257185;28;20499;-61
2023/09/08 16:10:11;;;;;;;17.40;11.13;;;;;;;;;;6253918;28;21056;-60
2023/09/08 16:13:11;;;;;;;25.47;12.53;;;;;;;;;;6256597;28;20154;-60
2023/09/08 16:16:12;;;;;;;20.60;12.18;;;;;;;;;;6256236;28;20049;-61
2023/09/08 16:19:12;;;;;;;19.43;12.33;;;;;;;;;;6254508;28;20048;-60
2023/09/08 16:22:13;;;;;;;21.55;12.27;;;;;;;;;;6256265;28;20102;-60
2023/09/08 16:25:14;;;;;;;24.10;13.07;;;;;;;;;;6255284;28;20144;-60
2023/09/08 16:28:16;;;;;;;23.75;13.32;;;;;;;;;;6255180;28;21169;-60
2023/09/08 16:31:17;;;;;;;21.80;13.73;;;;;;;;;;6254638;28;20044;-60
2023/09/08 16:34:17;;;;;;;21.70;13.27;;;;;;;;;;6255981;28;20099;-59
2023/09/08 16:37:18;;;;;;;22.00;12.70;;;;;;;;;;6247162;28;20046;-62
2023/09/08 16:40:19;;;;;;;20.52;13.20;;;;;;;;;;6249183;28;20312;-58
2023/09/08 16:43:20;;;;;;;21.88;13.25;;;;;;;;;;6243722;28;20049;-61
2023/09/08 16:46:20;;;;;;;23.00;13.07;;;;;;;;;;6242171;28;20049;-59
2023/09/08 16:49:21;;;;;;;21.50;13.30;;;;;;;;;;6238438;28;20476;-60
2023/09/08 16:52:22;;;;;;;20.10;12.97;;;;;;;;;;6245370;28;20099;-61
2023/09/08 16:55:23;;;;;;;19.17;13.10;;;;;;;;;;6242970;28;20140;-61
2023/09/08 16:58:23;;;;;;;20.97;14.07;;;;;;;;;;6242369;28;20554;-61
2023/09/08 17:01:24;;;;;;;23.63;13.77;;;;;;;;;;6237974;28;20147;-60
2023/09/08 17:04:24;;;;;;;28.20;14.83;;;;;;;;;;6245180;28;20057;-60
2023/09/08 17:07:25;;;;;;;23.15;14.40;;;;;;;;;;6242775;28;20082;-61
2023/09/08 17:10:26;;;;;;;25.50;14.50;;;;;;;;;;6243533;28;20613;-61
2023/09/08 17:13:27;;;;;;;24.43;14.40;;;;;;;;;;6244180;28;20056;-61
2023/09/08 17:16:28;;;;;;;22.10;13.68;;;;;;;;;;6241859;28;20306;-61
2023/09/08 17:19:29;;;;;;;32.70;14.80;;;;;;;;;;6245626;28;20056;-61
2023/09/08 17:22:30;;;;;;;23.83;14.38;;;;;;;;;;6247983;28;20041;-60
2023/09/08 17:25:30;;;;;;;21.73;13.63;;;;;;;;;;6251372;28;20464;-60
2023/09/08 17:28:31;;;;;;;22.43;14.40;;;;;;;;;;6252223;28;20045;-61
2023/09/08 17:31:32;;;;;;;26.87;14.37;;;;;;;;;;6251563;28;20060;-61
2023/09/08 17:34:32;;;;;;;23.03;14.07;;;;;;;;;;6252634;28;20504;-60
2023/09/08 17:37:33;;;;;;;25.13;14.03;;;;;;;;;;6257531;28;20475;-60